createdAt,value
2019-05-26T00:00:08.302Z,8.50
2019-05-26T00:02:37.791Z,7.83
2019-05-26T00:05:10.427Z,7.87
2019-05-26T00:07:39.782Z,9.00
2019-05-26T00:10:10.054Z,7.67
2019-05-26T00:12:39.649Z,7.67
2019-05-26T00:15:10.317Z,7.67
2019-05-26T00:17:39.696Z,10.90
2019-05-26T00:20:09.769Z,8.43
2019-05-26T00:22:39.067Z,8.27
2019-05-26T00:25:09.007Z,8.33
2019-05-26T00:27:38.545Z,7.80
2019-05-26T00:30:09.098Z,7.43
2019-05-26T00:32:38.479Z,10.00
2019-05-26T00:35:08.839Z,7.10
2019-05-26T00:37:49.215Z,8.80
2019-05-26T00:40:10.476Z,8.07
2019-05-26T00:42:39.815Z,8.07
2019-05-26T00:45:09.681Z,9.70
2019-05-26T00:47:39.124Z,7.80
2019-05-26T00:50:08.905Z,8.53
2019-05-26T00:52:39.059Z,8.77
2019-05-26T00:55:09.481Z,8.17
2019-05-26T00:57:38.849Z,9.57
2019-05-26T01:00:09.997Z,8.37
2019-05-26T01:02:39.407Z,10.07
2019-05-26T01:05:09.773Z,8.47
2019-05-26T01:07:39.110Z,9.00
2019-05-26T01:10:10.427Z,8.70
2019-05-26T01:12:39.799Z,8.80
2019-05-26T01:15:09.850Z,9.37
2019-05-26T01:17:39.167Z,8.70
2019-05-26T01:20:09.231Z,8.60
2019-05-26T01:22:38.734Z,8.83
2019-05-26T01:25:08.616Z,8.40
2019-05-26T01:27:37.904Z,9.30
2019-05-26T01:30:08.957Z,8.83
2019-05-26T01:32:38.443Z,8.80
2019-05-26T01:35:08.368Z,8.30
2019-05-26T01:37:39.002Z,7.17
2019-05-26T01:40:09.102Z,8.67
2019-05-26T01:42:38.555Z,8.60
2019-05-26T01:45:08.711Z,8.17
2019-05-26T01:47:38.126Z,7.23
2019-05-26T01:50:08.307Z,7.77
2019-05-26T01:52:37.846Z,6.93
2019-05-26T01:55:07.251Z,6.80
2019-05-26T01:57:36.812Z,7.23
2019-05-26T02:00:08.565Z,8.43
2019-05-26T02:02:37.942Z,6.10
2019-05-26T02:05:07.613Z,6.17
2019-05-26T02:07:36.853Z,5.73
2019-05-26T02:10:07.637Z,6.10
2019-05-26T02:12:36.985Z,7.53
2019-05-26T02:15:08.113Z,6.93
2019-05-26T02:17:37.497Z,6.90
2019-05-26T02:20:08.403Z,7.93
2019-05-26T02:22:37.759Z,7.20
2019-05-26T02:25:10.403Z,7.30
2019-05-26T02:27:39.762Z,6.90
2019-05-26T02:30:10.238Z,6.43
2019-05-26T02:32:39.634Z,6.20
2019-05-26T02:35:10.901Z,9.23
2019-05-26T02:37:40.222Z,8.23
2019-05-26T02:40:12.443Z,8.90
2019-05-26T02:42:41.731Z,8.40
2019-05-26T02:45:16.083Z,8.97
2019-05-26T02:47:46.999Z,7.57
2019-05-26T02:50:17.668Z,7.07
2019-05-26T02:52:47.060Z,8.70
2019-05-26T02:55:17.330Z,7.60
2019-05-26T02:57:46.789Z,8.40
2019-05-26T03:00:18.439Z,8.50
2019-05-26T03:02:47.825Z,7.50
2019-05-26T03:05:17.581Z,8.90
2019-05-26T03:07:47.529Z,8.10
2019-05-26T03:10:16.895Z,8.40
2019-05-26T03:12:48.826Z,9.27
2019-05-26T03:15:18.728Z,9.53
2019-05-26T03:17:50.041Z,9.87
2019-05-26T03:20:19.521Z,10.03
2019-05-26T03:22:54.665Z,9.10
2019-05-26T03:25:24.016Z,9.23
2019-05-26T03:27:53.443Z,9.47
2019-05-26T03:30:22.897Z,8.13
2019-05-26T03:32:52.270Z,8.63
2019-05-26T03:35:21.744Z,7.93
2019-05-26T03:37:51.123Z,11.10
2019-05-26T03:40:20.498Z,10.73
2019-05-26T03:42:50.044Z,9.43
2019-05-26T03:45:25.167Z,10.10
2019-05-26T03:47:54.522Z,9.10
2019-05-26T03:50:23.821Z,11.73
2019-05-26T03:52:53.291Z,9.60
2019-05-26T03:55:22.570Z,9.33
2019-05-26T03:57:51.882Z,10.73
2019-05-26T04:00:21.490Z,11.43
2019-05-26T04:02:50.851Z,10.10
2019-05-26T04:05:20.199Z,10.30
2019-05-26T04:07:49.591Z,9.27
2019-05-26T04:10:19.337Z,10.67
2019-05-26T04:12:48.727Z,10.10
2019-05-26T04:15:18.391Z,10.10
2019-05-26T04:17:47.683Z,9.23
2019-05-26T04:20:17.159Z,11.23
2019-05-26T04:22:46.585Z,8.07
2019-05-26T04:25:16.241Z,7.97
2019-05-26T04:27:45.648Z,7.77
2019-05-26T04:30:15.059Z,7.50
2019-05-26T04:32:44.431Z,8.00
2019-05-26T04:35:13.805Z,7.03
2019-05-26T04:37:43.199Z,8.57
2019-05-26T04:40:25.834Z,7.97
2019-05-26T04:42:44.580Z,9.53
2019-05-26T04:45:13.993Z,11.13
2019-05-26T04:47:43.451Z,10.67
2019-05-26T04:50:13.016Z,13.07
2019-05-26T04:52:42.374Z,10.87
2019-05-26T04:55:12.014Z,10.03
2019-05-26T04:57:41.359Z,8.70
2019-05-26T05:00:11.060Z,10.27
2019-05-26T05:02:40.353Z,11.90
2019-05-26T05:05:10.614Z,8.00
2019-05-26T05:07:40.047Z,10.60
2019-05-26T05:10:10.047Z,9.20
2019-05-26T05:12:39.479Z,8.13
2019-05-26T05:15:09.258Z,8.70
2019-05-26T05:17:38.631Z,7.63
2019-05-26T05:20:08.705Z,6.63
2019-05-26T05:22:38.094Z,7.10
2019-05-26T05:25:14.936Z,5.90
2019-05-26T05:27:41.793Z,6.30
2019-05-26T05:30:13.108Z,8.30
2019-05-26T05:32:42.416Z,6.37
2019-05-26T05:35:12.260Z,6.13
2019-05-26T05:37:41.662Z,6.53
2019-05-26T05:40:11.821Z,4.77
2019-05-26T05:42:41.364Z,8.10
2019-05-26T05:45:12.513Z,7.77
2019-05-26T05:47:41.895Z,7.63
2019-05-26T05:50:13.193Z,7.80
2019-05-26T05:52:42.513Z,7.03
2019-05-26T05:55:12.343Z,7.00
2019-05-26T05:57:41.690Z,5.97
2019-05-26T06:00:12.300Z,6.87
2019-05-26T06:02:41.711Z,7.00
2019-05-26T06:05:11.458Z,5.83
2019-05-26T06:07:40.852Z,5.97
2019-05-26T06:10:11.109Z,4.80
2019-05-26T06:12:40.458Z,5.13
2019-05-26T06:15:12.645Z,4.30
2019-05-26T06:17:42.538Z,4.97
2019-05-26T06:20:12.708Z,7.60
2019-05-26T06:22:42.023Z,6.00
2019-05-26T06:25:12.541Z,5.73
2019-05-26T06:27:41.709Z,7.87
2019-05-26T06:30:11.709Z,7.33
2019-05-26T06:32:40.980Z,6.27
2019-05-26T06:35:10.736Z,6.93
2019-05-26T06:37:40.134Z,4.83
2019-05-26T06:40:14.819Z,5.20
2019-05-26T06:42:44.220Z,6.13
2019-05-26T06:45:14.814Z,6.77
2019-05-26T06:47:44.171Z,5.47
2019-05-26T06:50:14.325Z,7.33
2019-05-26T06:52:43.655Z,5.27
2019-05-26T06:55:13.509Z,8.87
2019-05-26T06:57:42.986Z,6.73
2019-05-26T07:00:13.129Z,7.20
2019-05-26T07:02:42.476Z,8.33
2019-05-26T07:05:12.225Z,5.57
2019-05-26T07:07:41.482Z,5.90
2019-05-26T07:10:11.035Z,5.47
2019-05-26T07:12:40.391Z,5.63
2019-05-26T07:15:12.411Z,4.77
2019-05-26T07:17:41.787Z,4.83
2019-05-26T07:20:11.929Z,7.93
2019-05-26T07:22:41.296Z,4.27
2019-05-26T07:25:18.866Z,6.03
2019-05-26T07:27:48.157Z,7.00
2019-05-26T07:30:18.240Z,4.93
2019-05-26T07:32:47.508Z,5.70
2019-05-26T07:35:16.884Z,4.60
2019-05-26T07:37:46.177Z,4.47
2019-05-26T07:40:16.266Z,5.53
2019-05-26T07:42:45.565Z,7.23
2019-05-26T07:45:15.742Z,5.97
2019-05-26T07:47:45.909Z,5.03
2019-05-26T07:50:15.569Z,4.20
2019-05-26T07:52:45.196Z,5.07
2019-05-26T07:55:18.487Z,3.10
2019-05-26T07:57:47.844Z,4.33
2019-05-26T08:00:17.251Z,5.10
2019-05-26T08:02:46.546Z,3.40
2019-05-26T08:05:15.963Z,3.93
2019-05-26T08:07:45.510Z,4.13
2019-05-26T08:10:15.051Z,4.97
2019-05-26T08:12:44.409Z,3.60
2019-05-26T08:15:14.384Z,6.50
2019-05-26T08:17:43.804Z,4.87
2019-05-26T08:20:14.915Z,3.73
2019-05-26T08:22:44.310Z,4.77
2019-05-26T08:25:23.868Z,3.53
2019-05-26T08:27:53.250Z,4.87
2019-05-26T08:30:24.054Z,3.67
2019-05-26T08:32:53.283Z,3.37
2019-05-26T08:35:22.666Z,4.33
2019-05-26T08:37:52.035Z,4.30
2019-05-26T08:40:21.334Z,3.43
2019-05-26T08:42:52.337Z,6.27
2019-05-26T08:45:22.922Z,5.90
2019-05-26T08:47:53.270Z,7.70
2019-05-26T08:50:23.737Z,4.30
2019-05-26T08:52:53.120Z,4.70
2019-05-26T08:55:24.362Z,4.83
2019-05-26T08:57:53.764Z,5.53
2019-05-26T09:00:24.727Z,5.13
2019-05-26T09:02:54.151Z,4.00
2019-05-26T09:05:23.552Z,4.60
2019-05-26T09:07:52.888Z,3.30
2019-05-26T09:10:28.285Z,3.47
2019-05-26T09:13:01.113Z,4.40
2019-05-26T09:15:28.855Z,4.70
2019-05-26T09:17:58.200Z,4.23
2019-05-26T09:20:28.219Z,3.50
2019-05-26T09:22:57.589Z,5.17
2019-05-26T09:25:26.930Z,3.30
2019-05-26T09:27:56.376Z,4.47
2019-05-26T09:30:25.844Z,4.87
2019-05-26T09:32:55.211Z,3.30
2019-05-26T09:35:24.810Z,3.23
2019-05-26T09:37:54.280Z,4.60
2019-05-26T09:40:23.765Z,3.10
2019-05-26T09:42:53.268Z,4.27
2019-05-26T09:45:23.074Z,3.03
2019-05-26T09:47:52.430Z,3.20
2019-05-26T09:50:21.874Z,4.33
2019-05-26T09:52:51.222Z,2.73
2019-05-26T09:55:20.673Z,3.73
2019-05-26T09:57:50.086Z,3.83
2019-05-26T10:00:19.918Z,4.03
2019-05-26T10:02:49.348Z,2.53
2019-05-26T10:05:18.743Z,2.60
2019-05-26T10:07:48.099Z,4.87
2019-05-26T10:10:19.439Z,5.30
2019-05-26T10:12:49.199Z,3.43
2019-05-26T10:15:19.252Z,2.90
2019-05-26T10:17:48.626Z,4.03
2019-05-26T10:20:18.689Z,3.83
2019-05-26T10:22:48.054Z,3.40
2019-05-26T10:25:17.454Z,3.07
2019-05-26T10:27:46.952Z,3.47
2019-05-26T10:30:17.124Z,4.37
2019-05-26T10:32:47.085Z,4.37
2019-05-26T10:35:16.481Z,4.00
2019-05-26T10:37:45.944Z,3.30
2019-05-26T10:40:17.029Z,4.50
2019-05-26T10:42:47.082Z,3.20
2019-05-26T10:45:17.134Z,4.60
2019-05-26T10:47:46.534Z,5.70
2019-05-26T10:50:17.241Z,3.07
2019-05-26T10:52:46.622Z,4.40
2019-05-26T10:55:36.688Z,5.03
2019-05-26T10:58:06.609Z,3.83
2019-05-26T11:00:35.990Z,3.20
2019-05-26T11:03:06.305Z,3.33
2019-05-26T11:05:36.516Z,6.20
2019-05-26T11:08:05.922Z,3.43
2019-05-26T11:10:35.380Z,4.57
2019-05-26T11:13:05.159Z,3.47
2019-05-26T11:15:34.647Z,5.13
2019-05-26T11:18:04.271Z,5.37
2019-05-26T11:20:33.810Z,4.50
2019-05-26T11:23:03.256Z,4.00
2019-05-26T11:25:38.919Z,5.53
2019-05-26T11:28:08.578Z,4.73
2019-05-26T11:30:38.059Z,4.00
2019-05-26T11:33:07.470Z,4.67
2019-05-26T11:35:36.936Z,4.87
2019-05-26T11:38:06.429Z,5.67
2019-05-26T11:40:35.934Z,4.00
2019-05-26T11:43:16.406Z,3.70
2019-05-26T11:45:36.702Z,4.30
2019-05-26T11:48:06.078Z,4.73
2019-05-26T11:50:35.702Z,4.23
2019-05-26T11:53:05.128Z,3.57
2019-05-26T11:55:40.341Z,3.63
2019-05-26T11:58:10.094Z,3.77
2019-05-26T12:00:39.660Z,3.77
2019-05-26T12:03:09.045Z,4.00
2019-05-26T12:05:38.427Z,4.97
2019-05-26T12:08:07.990Z,4.23
2019-05-26T12:10:37.349Z,4.73
2019-05-26T12:13:06.901Z,4.63
2019-05-26T12:15:37.199Z,3.90
2019-05-26T12:18:06.715Z,4.43
2019-05-26T12:20:36.154Z,3.40
2019-05-26T12:23:05.620Z,4.30
2019-05-26T12:25:34.999Z,4.10
2019-05-26T12:28:04.481Z,3.30
2019-05-26T12:30:33.892Z,4.20
2019-05-26T12:33:03.335Z,3.57
2019-05-26T12:35:46.681Z,4.00
2019-05-26T12:38:16.349Z,3.10
2019-05-26T12:40:46.200Z,3.30
2019-05-26T12:43:15.634Z,3.47
2019-05-26T12:45:45.011Z,3.13
2019-05-26T12:48:14.439Z,3.70
2019-05-26T12:50:43.901Z,5.97
2019-05-26T12:53:13.374Z,4.47
2019-05-26T12:55:42.798Z,3.33
2019-05-26T12:58:12.173Z,4.67
2019-05-26T13:00:48.857Z,4.17
2019-05-26T13:03:12.635Z,5.03
2019-05-26T13:05:42.985Z,4.47
2019-05-26T13:08:12.393Z,3.43
2019-05-26T13:10:41.791Z,4.30
2019-05-26T13:13:11.073Z,3.93
2019-05-26T13:15:40.432Z,3.97
2019-05-26T13:18:09.848Z,3.13
2019-05-26T13:20:39.319Z,2.87
2019-05-26T13:23:08.807Z,3.50
2019-05-26T13:25:43.989Z,3.07
2019-05-26T13:28:13.272Z,5.33
2019-05-26T13:30:42.641Z,3.37
2019-05-26T13:33:12.096Z,3.17
2019-05-26T13:35:41.516Z,3.90
2019-05-26T13:38:11.025Z,3.80
2019-05-26T13:40:40.465Z,3.63
2019-05-26T13:43:09.909Z,3.47
2019-05-26T13:45:39.287Z,3.87
2019-05-26T13:48:08.695Z,4.20
2019-05-26T13:50:38.078Z,3.20
2019-05-26T13:53:07.451Z,3.90
2019-05-26T13:55:49.019Z,5.73
2019-05-26T13:58:18.411Z,3.90
2019-05-26T14:00:47.779Z,3.60
2019-05-26T14:03:17.214Z,3.50
2019-05-26T14:05:46.667Z,3.30
2019-05-26T14:08:15.957Z,6.13
2019-05-26T14:10:45.368Z,4.77
2019-05-26T14:13:14.738Z,2.87
2019-05-26T14:15:44.104Z,5.30
2019-05-26T14:18:14.849Z,4.30
2019-05-26T14:20:45.908Z,3.97
2019-05-26T14:23:15.325Z,4.87
2019-05-26T14:25:44.737Z,4.57
2019-05-26T14:28:14.169Z,5.07
2019-05-26T14:30:43.620Z,3.20
2019-05-26T14:33:13.027Z,4.00
2019-05-26T14:35:42.505Z,3.33
2019-05-26T14:38:11.940Z,4.50
2019-05-26T14:40:49.372Z,4.33
2019-05-26T14:43:18.725Z,4.20
2019-05-26T14:45:58.602Z,3.47
2019-05-26T14:48:28.158Z,5.27
2019-05-26T14:50:57.740Z,5.63
2019-05-26T14:53:27.090Z,5.53
2019-05-26T14:55:56.406Z,3.37
2019-05-26T14:58:26.268Z,3.70
2019-05-26T15:00:55.736Z,3.93
2019-05-26T15:03:25.182Z,3.27
2019-05-26T15:06:05.473Z,5.10
2019-05-26T15:08:25.930Z,4.10
2019-05-26T15:10:55.291Z,5.20
2019-05-26T15:13:24.747Z,6.23
2019-05-26T15:16:08.795Z,3.80
2019-05-26T15:18:25.288Z,5.37
2019-05-26T15:20:56.141Z,5.10
2019-05-26T15:23:25.724Z,4.30
2019-05-26T15:25:55.160Z,3.50
2019-05-26T15:28:24.525Z,3.27
2019-05-26T15:30:54.002Z,3.87
2019-05-26T15:33:23.460Z,4.07
2019-05-26T15:35:52.795Z,4.00
2019-05-26T15:38:22.449Z,3.73
2019-05-26T15:40:54.899Z,5.70
2019-05-26T15:43:24.413Z,4.17
2019-05-26T15:45:53.932Z,3.77
2019-05-26T15:48:23.542Z,5.17
2019-05-26T15:50:53.051Z,4.10
2019-05-26T15:53:22.335Z,4.00
2019-05-26T15:55:51.620Z,5.50
2019-05-26T15:58:21.160Z,4.33
2019-05-26T16:00:50.562Z,6.17
2019-05-26T16:03:19.936Z,4.30
2019-05-26T16:05:49.388Z,5.20
2019-05-26T16:08:18.891Z,6.43
2019-05-26T16:11:00.586Z,8.13
2019-05-26T16:13:30.101Z,4.37
2019-05-26T16:15:59.504Z,6.90
2019-05-26T16:18:28.848Z,5.90
2019-05-26T16:21:03.024Z,7.50
2019-05-26T16:23:29.369Z,6.97
2019-05-26T16:25:59.108Z,6.13
2019-05-26T16:28:28.583Z,8.03
2019-05-26T16:30:58.028Z,5.20
2019-05-26T16:33:27.397Z,5.57
2019-05-26T16:35:57.796Z,7.80
2019-05-26T16:38:27.172Z,7.57
2019-05-26T16:40:58.261Z,7.37
2019-05-26T16:43:27.724Z,6.10
2019-05-26T16:45:57.512Z,8.27
2019-05-26T16:48:27.183Z,6.97
2019-05-26T16:50:56.785Z,9.63
2019-05-26T16:53:26.369Z,5.50
2019-05-26T16:55:55.761Z,9.43
2019-05-26T16:58:25.190Z,10.20
2019-05-26T17:00:54.479Z,8.17
2019-05-26T17:03:23.981Z,11.47
2019-05-26T17:06:07.048Z,8.73
2019-05-26T17:08:24.917Z,7.73
2019-05-26T17:10:56.022Z,12.17
2019-05-26T17:13:26.075Z,9.67
2019-05-26T17:15:55.909Z,7.47
2019-05-26T17:18:25.519Z,10.53
2019-05-26T17:20:55.016Z,9.93
2019-05-26T17:23:24.832Z,7.90
2019-05-26T17:25:54.672Z,7.60
2019-05-26T17:28:24.165Z,5.63
2019-05-26T17:30:53.701Z,8.03
2019-05-26T17:33:23.255Z,9.20
2019-05-26T17:35:52.726Z,7.50
2019-05-26T17:38:22.043Z,5.83
2019-05-26T17:40:51.503Z,6.60
2019-05-26T17:43:20.968Z,7.00
2019-05-26T17:45:50.577Z,7.50
2019-05-26T17:48:20.095Z,9.20
2019-05-26T17:50:49.550Z,6.30
2019-05-26T17:53:18.950Z,7.13
2019-05-26T17:56:04.696Z,6.77
2019-05-26T17:58:34.155Z,7.50
2019-05-26T18:01:03.796Z,7.67
2019-05-26T18:03:33.275Z,6.63
2019-05-26T18:06:02.719Z,7.00
2019-05-26T18:08:35.919Z,7.93
2019-05-26T18:11:04.593Z,9.33
2019-05-26T18:13:34.189Z,9.37
2019-05-26T18:16:03.925Z,7.10
2019-05-26T18:18:33.415Z,10.00
2019-05-26T18:21:02.962Z,9.27
2019-05-26T18:23:32.540Z,9.23
2019-05-26T18:26:01.946Z,11.00
2019-05-26T18:28:31.317Z,8.47
2019-05-26T18:31:00.621Z,10.93
2019-05-26T18:33:30.238Z,12.27
2019-05-26T18:35:59.705Z,10.70
2019-05-26T18:38:29.080Z,10.20
2019-05-26T18:41:10.358Z,9.03
2019-05-26T18:43:39.938Z,9.80
2019-05-26T18:46:09.298Z,8.57
2019-05-26T18:48:38.745Z,9.93
2019-05-26T18:51:08.175Z,9.63
2019-05-26T18:53:37.607Z,9.90
2019-05-26T18:56:06.974Z,11.10
2019-05-26T18:58:36.678Z,8.73
2019-05-26T19:01:06.950Z,7.13
2019-05-26T19:03:36.400Z,7.23
2019-05-26T19:06:05.943Z,6.63
2019-05-26T19:08:35.360Z,9.63
2019-05-26T19:11:05.089Z,11.60
2019-05-26T19:13:35.573Z,9.60
2019-05-26T19:16:05.452Z,7.90
2019-05-26T19:18:34.834Z,7.53
2019-05-26T19:21:04.866Z,7.10
2019-05-26T19:23:38.019Z,9.73
2019-05-26T19:26:15.711Z,7.40
2019-05-26T19:28:45.205Z,8.67
2019-05-26T19:31:14.840Z,8.30
2019-05-26T19:33:44.210Z,8.87
2019-05-26T19:36:13.848Z,8.80
2019-05-26T19:38:43.226Z,9.53
2019-05-26T19:41:12.880Z,13.57
2019-05-26T19:43:42.491Z,13.53
2019-05-26T19:46:13.856Z,16.93
2019-05-26T19:48:43.471Z,18.47
2019-05-26T19:51:13.003Z,15.10
2019-05-26T19:53:42.352Z,16.80
2019-05-26T19:56:15.090Z,18.60
2019-05-26T19:58:44.533Z,19.73
2019-05-26T20:01:13.846Z,18.07
2019-05-26T20:03:44.129Z,15.37
2019-05-26T20:06:13.648Z,16.73
2019-05-26T20:08:43.027Z,15.00
2019-05-26T20:11:12.441Z,17.33
2019-05-26T20:13:41.888Z,16.53
2019-05-26T20:16:11.287Z,13.63
2019-05-26T20:18:40.693Z,15.20
2019-05-26T20:21:10.096Z,14.00
2019-05-26T20:23:39.425Z,13.53
2019-05-26T20:26:21.167Z,15.87
2019-05-26T20:28:50.971Z,12.30
2019-05-26T20:31:20.429Z,12.63
2019-05-26T20:33:50.043Z,11.40
2019-05-26T20:36:19.433Z,13.40
2019-05-26T20:38:48.818Z,11.37
2019-05-26T20:41:18.234Z,11.63
2019-05-26T20:43:47.623Z,10.23
2019-05-26T20:46:17.130Z,10.23
2019-05-26T20:48:46.821Z,9.00
2019-05-26T20:51:16.188Z,9.50
2019-05-26T20:53:45.801Z,11.57
2019-05-26T20:56:15.279Z,9.87
2019-05-26T20:58:44.901Z,10.13
2019-05-26T21:01:14.735Z,15.37
2019-05-26T21:03:44.918Z,10.13
2019-05-26T21:06:15.043Z,10.30
2019-05-26T21:08:44.415Z,11.37
2019-05-26T21:11:15.456Z,10.93
2019-05-26T21:13:44.982Z,9.97
2019-05-26T21:16:14.359Z,9.03
2019-05-26T21:18:43.771Z,9.33
2019-05-26T21:21:13.146Z,9.57
2019-05-26T21:23:42.540Z,9.53
2019-05-26T21:26:12.104Z,8.93
2019-05-26T21:28:41.346Z,10.30
2019-05-26T21:31:10.794Z,8.80
2019-05-26T21:33:40.308Z,9.47
2019-05-26T21:36:10.022Z,9.60
2019-05-26T21:38:39.416Z,10.70
2019-05-26T21:41:26.871Z,10.43
2019-05-26T21:43:56.462Z,9.97
2019-05-26T21:46:25.937Z,9.83
2019-05-26T21:48:55.369Z,10.50
2019-05-26T21:51:25.669Z,11.03
2019-05-26T21:53:55.056Z,11.00
2019-05-26T21:56:30.544Z,10.73
2019-05-26T21:58:59.955Z,10.17
2019-05-26T22:01:29.817Z,10.70
2019-05-26T22:04:05.015Z,11.83
2019-05-26T22:06:35.984Z,10.90
2019-05-26T22:09:07.932Z,11.23
2019-05-26T22:11:37.387Z,11.00
2019-05-26T22:14:06.789Z,11.97
2019-05-26T22:16:37.949Z,11.80
2019-05-26T22:19:07.575Z,11.13
2019-05-26T22:21:37.062Z,11.77
2019-05-26T22:24:06.513Z,9.60
2019-05-26T22:26:36.061Z,11.23
2019-05-26T22:29:05.557Z,11.57
2019-05-26T22:31:35.796Z,12.07
2019-05-26T22:34:05.441Z,11.77
2019-05-26T22:36:35.418Z,11.77
2019-05-26T22:39:06.665Z,12.90
2019-05-26T22:41:36.018Z,12.53
2019-05-26T22:44:05.400Z,12.83
2019-05-26T22:46:34.926Z,11.30
2019-05-26T22:49:04.523Z,11.47
2019-05-26T22:51:33.956Z,10.63
2019-05-26T22:54:03.284Z,10.50
2019-05-26T22:56:32.690Z,12.80
2019-05-26T22:59:02.056Z,13.10
2019-05-26T23:01:31.571Z,12.40
2019-05-26T23:04:03.239Z,11.93
2019-05-26T23:06:32.129Z,13.33
2019-05-26T23:09:01.751Z,13.20
2019-05-26T23:11:31.172Z,12.70
2019-05-26T23:14:00.558Z,13.27
2019-05-26T23:16:29.890Z,12.87
2019-05-26T23:18:59.470Z,13.37
2019-05-26T23:21:28.841Z,13.17
2019-05-26T23:23:58.209Z,13.50
2019-05-26T23:26:34.865Z,14.20
2019-05-26T23:29:04.236Z,12.43
2019-05-26T23:31:33.548Z,13.93
2019-05-26T23:34:02.897Z,12.63
2019-05-26T23:36:32.320Z,14.30
2019-05-26T23:39:01.905Z,14.27
2019-05-26T23:41:34.603Z,12.63
2019-05-26T23:44:03.902Z,12.67
2019-05-26T23:46:33.245Z,12.83
2019-05-26T23:49:02.555Z,12.83
2019-05-26T23:51:31.870Z,11.83
2019-05-26T23:54:01.223Z,10.00
2019-05-26T23:56:30.629Z,12.70
2019-05-26T23:58:59.942Z,12.97
